createdAt,value
2019-05-15T00:00:55.295Z,5.78
2019-05-15T00:01:55.221Z,5.74
2019-05-15T00:02:55.132Z,5.70
2019-05-15T00:03:55.100Z,5.77
2019-05-15T00:04:54.969Z,5.71
2019-05-15T00:05:54.892Z,5.70
2019-05-15T00:06:54.804Z,5.67
2019-05-15T00:07:54.816Z,5.59
2019-05-15T00:08:54.645Z,5.63
2019-05-15T00:09:54.622Z,5.67
2019-05-15T00:10:54.491Z,5.68
2019-05-15T00:11:54.432Z,5.63
2019-05-15T00:12:54.319Z,5.56
2019-05-15T00:13:54.249Z,5.50
2019-05-15T00:14:54.157Z,5.50
2019-05-15T00:15:54.154Z,5.56
2019-05-15T00:16:53.995Z,5.56
2019-05-15T00:17:53.960Z,5.54
2019-05-15T00:18:53.832Z,5.56
2019-05-15T00:19:53.876Z,5.38
2019-05-15T00:20:53.668Z,5.44
2019-05-15T00:21:53.598Z,5.42
2019-05-15T00:22:53.509Z,5.42
2019-05-15T00:23:53.491Z,5.41
2019-05-15T00:24:53.349Z,5.42
2019-05-15T00:25:53.304Z,5.36
2019-05-15T00:26:53.185Z,5.41
2019-05-15T00:27:53.216Z,5.31
2019-05-15T00:28:53.022Z,5.35
2019-05-15T00:29:53.023Z,5.39
2019-05-15T00:30:52.863Z,5.36
2019-05-15T00:31:52.832Z,5.29
2019-05-15T00:32:52.697Z,5.26
2019-05-15T00:33:52.641Z,5.32
2019-05-15T00:34:52.539Z,5.31
2019-05-15T00:35:52.554Z,5.21
2019-05-15T00:36:52.377Z,5.32
2019-05-15T00:37:52.360Z,5.35
2019-05-15T00:38:52.206Z,5.32
2019-05-15T00:39:52.172Z,5.24
2019-05-15T00:40:52.047Z,5.28
2019-05-15T00:41:54.745Z,5.23
2019-05-15T00:42:51.883Z,5.18
2019-05-15T00:43:51.889Z,5.16
2019-05-15T00:44:51.724Z,5.17
2019-05-15T00:45:51.704Z,5.20
2019-05-15T00:46:51.561Z,5.06
2019-05-15T00:47:51.504Z,5.08
2019-05-15T00:48:51.391Z,5.11
2019-05-15T00:49:51.420Z,5.10
2019-05-15T00:50:51.231Z,5.06
2019-05-15T00:51:51.235Z,5.10
2019-05-15T00:52:51.067Z,5.05
2019-05-15T00:53:50.995Z,5.05
2019-05-15T00:54:50.915Z,5.08
2019-05-15T00:55:50.950Z,5.11
2019-05-15T00:56:50.747Z,5.03
2019-05-15T00:57:50.675Z,5.10
2019-05-15T00:58:50.586Z,5.03
2019-05-15T00:59:50.569Z,4.99
2019-05-15T01:00:50.418Z,5.00
2019-05-15T01:01:50.347Z,4.96
2019-05-15T01:02:50.257Z,4.92
2019-05-15T01:03:50.290Z,4.85
2019-05-15T01:04:50.096Z,4.79
2019-05-15T01:05:50.098Z,4.84
2019-05-15T01:06:52.651Z,4.87
2019-05-15T01:07:49.906Z,4.85
2019-05-15T01:08:49.772Z,4.77
2019-05-15T01:09:49.712Z,4.69
2019-05-15T01:10:49.605Z,4.79
2019-05-15T01:11:49.624Z,4.73
2019-05-15T01:12:49.440Z,4.76
2019-05-15T01:13:49.436Z,4.68
2019-05-15T01:14:49.281Z,4.74
2019-05-15T01:15:49.241Z,4.54
2019-05-15T01:16:49.181Z,4.65
2019-05-15T01:17:49.319Z,4.62
2019-05-15T01:18:49.246Z,4.55
2019-05-15T01:19:48.965Z,4.55
2019-05-15T01:20:49.365Z,4.56
2019-05-15T01:21:48.771Z,4.56
2019-05-15T01:22:48.674Z,4.62
2019-05-15T01:23:48.621Z,4.61
2019-05-15T01:24:48.666Z,4.64
2019-05-15T01:25:48.496Z,4.68
2019-05-15T01:26:49.266Z,4.66
2019-05-15T01:27:49.032Z,4.66
2019-05-15T01:28:49.420Z,4.58
2019-05-15T01:29:49.293Z,4.59
2019-05-15T01:30:48.597Z,4.59
2019-05-15T01:31:48.699Z,4.61
2019-05-15T01:32:48.543Z,4.61
2019-05-15T01:33:48.160Z,4.66
2019-05-15T01:34:49.063Z,4.64
2019-05-15T01:35:48.718Z,4.72
2019-05-15T01:36:48.874Z,4.66
2019-05-15T01:37:48.281Z,4.61
2019-05-15T01:38:48.055Z,4.65
2019-05-15T01:39:48.533Z,4.55
2019-05-15T01:40:48.460Z,4.58
2019-05-15T01:41:49.345Z,4.56
2019-05-15T01:42:47.003Z,4.56
2019-05-15T01:43:48.921Z,4.47
2019-05-15T01:44:48.417Z,4.47
2019-05-15T01:45:48.315Z,4.52
2019-05-15T01:46:48.262Z,4.38
2019-05-15T01:47:47.986Z,4.47
2019-05-15T01:48:46.504Z,4.48
2019-05-15T01:49:46.433Z,4.36
2019-05-15T01:50:46.338Z,4.38
2019-05-15T01:51:47.972Z,4.28
2019-05-15T01:52:47.923Z,4.38
2019-05-15T01:53:48.044Z,4.37
2019-05-15T01:54:46.016Z,4.34
2019-05-15T01:55:48.253Z,4.30
2019-05-15T01:56:45.854Z,4.32
2019-05-15T01:57:45.851Z,4.30
2019-05-15T01:58:45.687Z,4.32
2019-05-15T01:59:56.580Z,4.32
2019-05-15T02:00:45.521Z,4.20
2019-05-15T02:01:45.463Z,4.34
2019-05-15T02:02:45.366Z,4.32
2019-05-15T02:03:45.383Z,4.26
2019-05-15T02:04:45.197Z,4.22
2019-05-15T02:05:45.185Z,4.22
2019-05-15T02:06:45.032Z,4.22
2019-05-15T02:07:44.994Z,4.19
2019-05-15T02:08:44.869Z,4.20
2019-05-15T02:09:44.904Z,4.19
2019-05-15T02:10:44.709Z,4.08
2019-05-15T02:11:44.717Z,4.08
2019-05-15T02:12:44.549Z,4.12
2019-05-15T02:13:44.529Z,4.22
2019-05-15T02:14:44.378Z,4.11
2019-05-15T02:15:44.334Z,4.05
2019-05-15T02:16:44.216Z,4.04
2019-05-15T02:17:44.246Z,4.10
2019-05-15T02:18:44.054Z,4.04
2019-05-15T02:19:44.054Z,4.05
2019-05-15T02:20:43.885Z,4.07
2019-05-15T02:21:43.864Z,4.01
2019-05-15T02:22:43.732Z,4.10
2019-05-15T02:23:43.670Z,4.00
2019-05-15T02:24:43.559Z,4.00
2019-05-15T02:25:43.583Z,4.08
2019-05-15T02:26:43.397Z,4.07
2019-05-15T02:27:43.393Z,4.10
2019-05-15T02:28:43.234Z,4.01
2019-05-15T02:29:43.203Z,3.98
2019-05-15T02:30:43.063Z,3.97
2019-05-15T02:31:43.011Z,3.97
2019-05-15T02:32:42.911Z,3.92
2019-05-15T02:33:42.921Z,3.87
2019-05-15T02:34:42.740Z,3.90
2019-05-15T02:35:42.736Z,3.93
2019-05-15T02:36:42.576Z,3.84
2019-05-15T02:37:42.540Z,3.75
2019-05-15T02:38:42.422Z,3.72
2019-05-15T02:39:42.452Z,3.75
2019-05-15T02:40:42.249Z,3.74
2019-05-15T02:41:42.266Z,3.64
2019-05-15T02:42:42.082Z,3.79
2019-05-15T02:43:42.070Z,3.69
2019-05-15T02:44:41.921Z,3.71
2019-05-15T02:45:42.742Z,3.75
2019-05-15T02:46:41.753Z,3.74
2019-05-15T02:47:41.794Z,3.77
2019-05-15T02:48:41.589Z,3.62
2019-05-15T02:49:41.605Z,3.64
2019-05-15T02:50:41.427Z,3.65
2019-05-15T02:51:41.409Z,3.66
2019-05-15T02:52:45.167Z,3.64
2019-05-15T02:53:41.236Z,3.75
2019-05-15T02:54:41.109Z,3.62
2019-05-15T02:55:41.133Z,3.64
2019-05-15T02:56:40.933Z,3.59
2019-05-15T02:57:40.935Z,3.57
2019-05-15T02:58:40.772Z,3.62
2019-05-15T02:59:40.750Z,3.65
2019-05-15T03:00:46.954Z,3.64
2019-05-15T03:01:40.808Z,3.59
2019-05-15T03:02:41.597Z,3.65
2019-05-15T03:03:40.471Z,3.57
2019-05-15T03:04:40.364Z,3.61
2019-05-15T03:05:41.152Z,3.57
2019-05-15T03:06:40.113Z,3.59
2019-05-15T03:07:40.792Z,3.61
2019-05-15T03:08:40.351Z,3.65
2019-05-15T03:09:40.158Z,3.65
2019-05-15T03:10:40.820Z,3.65
2019-05-15T03:11:40.820Z,3.62
2019-05-15T03:12:40.892Z,3.65
2019-05-15T03:13:39.655Z,3.57
2019-05-15T03:14:40.062Z,3.54
2019-05-15T03:15:40.520Z,3.48
2019-05-15T03:16:39.655Z,3.59
2019-05-15T03:17:40.715Z,3.57
2019-05-15T03:18:39.881Z,3.51
2019-05-15T03:19:39.511Z,3.51
2019-05-15T03:20:39.324Z,3.48
2019-05-15T03:21:39.070Z,3.50
2019-05-15T03:22:39.978Z,3.43
2019-05-15T03:23:40.557Z,3.46
2019-05-15T03:24:39.616Z,3.41
2019-05-15T03:25:40.468Z,3.41
2019-05-15T03:26:39.466Z,3.41
2019-05-15T03:27:39.475Z,3.37
2019-05-15T03:28:39.505Z,3.46
2019-05-15T03:29:40.304Z,3.46
2019-05-15T03:31:06.504Z,3.48
2019-05-15T03:31:57.838Z,3.50
2019-05-15T03:32:50.505Z,3.47
2019-05-15T03:33:44.891Z,3.53
2019-05-15T03:34:46.241Z,3.56
2019-05-15T03:35:42.726Z,3.47
2019-05-15T03:36:44.436Z,3.57
2019-05-15T03:37:39.772Z,3.56
2019-05-15T03:38:39.350Z,3.51
2019-05-15T03:39:39.229Z,3.50
2019-05-15T03:40:39.615Z,3.48
2019-05-15T03:41:39.310Z,3.53
2019-05-15T03:42:39.335Z,3.51
2019-05-15T03:43:39.399Z,3.59
2019-05-15T03:44:39.289Z,3.51
2019-05-15T03:45:40.253Z,3.54
2019-05-15T03:46:39.562Z,3.50
2019-05-15T03:47:39.728Z,3.51
2019-05-15T03:48:39.790Z,3.46
2019-05-15T03:49:39.436Z,3.48
2019-05-15T03:50:39.716Z,3.51
2019-05-15T03:51:40.102Z,3.41
2019-05-15T03:52:39.250Z,3.47
2019-05-15T03:53:39.534Z,3.47
2019-05-15T03:54:39.106Z,3.43
2019-05-15T03:55:36.118Z,3.41
2019-05-15T03:56:39.045Z,3.34
2019-05-15T03:57:39.589Z,3.39
2019-05-15T03:58:35.828Z,3.37
2019-05-15T03:59:35.836Z,3.35
2019-05-15T04:00:35.667Z,3.29
2019-05-15T04:01:39.723Z,3.43
2019-05-15T04:02:35.504Z,3.35
2019-05-15T04:03:38.810Z,3.37
2019-05-15T04:04:35.337Z,3.34
2019-05-15T04:05:38.636Z,3.31
2019-05-15T04:06:35.168Z,3.32
2019-05-15T04:07:35.179Z,3.32
2019-05-15T04:08:35.016Z,3.28
2019-05-15T04:09:34.993Z,3.28
2019-05-15T04:10:34.844Z,3.27
2019-05-15T04:11:34.797Z,3.28
2019-05-15T04:12:34.678Z,3.28
2019-05-15T04:13:34.724Z,3.27
2019-05-15T04:14:34.510Z,3.32
2019-05-15T04:15:34.523Z,3.31
2019-05-15T04:16:34.345Z,3.27
2019-05-15T04:17:34.332Z,3.29
2019-05-15T04:18:34.178Z,3.25
2019-05-15T04:19:34.134Z,3.32
2019-05-15T04:20:34.014Z,3.29
2019-05-15T04:21:34.044Z,3.32
2019-05-15T04:22:33.848Z,3.32
2019-05-15T04:23:33.859Z,3.34
2019-05-15T04:24:33.683Z,3.35
2019-05-15T04:25:33.663Z,3.50
2019-05-15T04:26:33.516Z,3.48
2019-05-15T04:27:33.475Z,3.51
2019-05-15T04:28:33.354Z,3.56
2019-05-15T04:29:33.383Z,3.53
2019-05-15T04:30:33.192Z,3.62
2019-05-15T04:31:50.347Z,3.62
2019-05-15T04:32:33.022Z,3.64
2019-05-15T04:33:33.002Z,3.68
2019-05-15T04:34:32.860Z,3.69
2019-05-15T04:35:32.817Z,3.77
2019-05-15T04:36:32.692Z,3.72
2019-05-15T04:37:32.725Z,3.83
2019-05-15T04:38:32.529Z,3.82
2019-05-15T04:39:32.546Z,3.71
2019-05-15T04:40:32.362Z,3.75
2019-05-15T04:41:32.344Z,3.74
2019-05-15T04:42:32.205Z,3.74
2019-05-15T04:43:39.731Z,3.87
2019-05-15T04:44:32.034Z,3.82
2019-05-15T04:45:35.244Z,3.84
2019-05-15T04:46:31.866Z,4.01
2019-05-15T04:47:31.872Z,4.01
2019-05-15T04:48:31.714Z,4.02
2019-05-15T04:49:31.681Z,4.12
2019-05-15T04:50:31.541Z,4.10
2019-05-15T04:51:31.497Z,4.16
2019-05-15T04:52:31.374Z,4.18
2019-05-15T04:53:33.191Z,4.30
2019-05-15T04:54:31.224Z,4.37
2019-05-15T04:55:31.208Z,4.47
2019-05-15T04:56:31.043Z,4.56
2019-05-15T04:57:34.081Z,4.58
2019-05-15T04:58:30.894Z,4.64
2019-05-15T04:59:30.822Z,4.73
2019-05-15T05:00:30.715Z,4.77
2019-05-15T05:01:30.745Z,4.80
2019-05-15T05:02:32.087Z,5.00
2019-05-15T05:03:34.158Z,4.96
2019-05-15T05:04:30.392Z,5.10
2019-05-15T05:05:30.353Z,5.14
2019-05-15T05:06:30.223Z,5.11
2019-05-15T05:07:30.164Z,5.17
2019-05-15T05:08:30.060Z,5.32
2019-05-15T05:09:30.075Z,5.34
2019-05-15T05:10:29.893Z,5.36
2019-05-15T05:11:29.893Z,5.36
2019-05-15T05:12:29.729Z,5.52
2019-05-15T05:13:29.803Z,5.56
2019-05-15T05:14:29.569Z,5.54
2019-05-15T05:15:29.503Z,5.57
2019-05-15T05:16:29.637Z,5.60
2019-05-15T05:17:29.421Z,5.65
2019-05-15T05:18:29.905Z,5.67
2019-05-15T05:19:29.261Z,5.60
2019-05-15T05:20:29.073Z,5.68
2019-05-15T05:21:28.994Z,5.74
2019-05-15T05:22:29.039Z,5.77
2019-05-15T05:23:28.821Z,5.78
2019-05-15T05:24:28.846Z,5.85
2019-05-15T05:25:28.661Z,5.88
2019-05-15T05:26:29.445Z,5.83
2019-05-15T05:27:28.850Z,5.85
2019-05-15T05:28:29.041Z,5.85
2019-05-15T05:29:28.337Z,5.96
2019-05-15T05:30:29.282Z,5.97
2019-05-15T05:31:29.597Z,6.07
2019-05-15T05:32:34.527Z,6.06
2019-05-15T05:33:28.611Z,6.03
2019-05-15T05:34:28.438Z,6.13
2019-05-15T05:35:27.974Z,6.11
2019-05-15T05:36:28.027Z,6.13
2019-05-15T05:37:28.005Z,6.27
2019-05-15T05:38:28.195Z,6.14
2019-05-15T05:39:29.425Z,6.26
2019-05-15T05:40:29.326Z,6.32
2019-05-15T05:41:28.107Z,6.30
2019-05-15T05:42:29.109Z,6.29
2019-05-15T05:43:27.192Z,6.42
2019-05-15T05:44:29.133Z,6.34
2019-05-15T05:45:28.811Z,6.37
2019-05-15T05:46:28.031Z,6.45
2019-05-15T05:47:28.790Z,6.47
2019-05-15T05:48:29.116Z,6.37
2019-05-15T05:49:28.688Z,6.37
2019-05-15T05:50:28.788Z,6.45
2019-05-15T05:51:28.159Z,6.41
2019-05-15T05:52:28.025Z,6.41
2019-05-15T05:53:28.525Z,6.52
2019-05-15T05:54:28.650Z,6.54
2019-05-15T05:55:28.277Z,6.47
2019-05-15T05:56:28.298Z,6.60
2019-05-15T05:57:27.942Z,6.65
2019-05-15T05:58:25.968Z,6.65
2019-05-15T05:59:28.260Z,6.62
2019-05-15T06:00:28.447Z,6.69
2019-05-15T06:01:28.133Z,6.73
2019-05-15T06:02:27.891Z,6.81
2019-05-15T06:03:27.907Z,6.84
2019-05-15T06:04:27.776Z,6.78
2019-05-15T06:05:28.006Z,6.88
2019-05-15T06:06:25.333Z,6.93
2019-05-15T06:07:27.802Z,6.98
2019-05-15T06:08:25.259Z,6.88
2019-05-15T06:09:25.073Z,6.91
2019-05-15T06:10:25.170Z,7.02
2019-05-15T06:11:24.908Z,6.99
2019-05-15T06:12:24.982Z,6.98
2019-05-15T06:13:24.746Z,7.09
2019-05-15T06:14:24.788Z,7.06
2019-05-15T06:15:24.587Z,7.03
2019-05-15T06:16:24.601Z,7.03
2019-05-15T06:17:24.424Z,7.19
2019-05-15T06:18:24.343Z,7.17
2019-05-15T06:19:24.413Z,7.29
2019-05-15T06:20:24.177Z,7.27
2019-05-15T06:21:24.119Z,7.26
2019-05-15T06:22:24.017Z,7.31
2019-05-15T06:23:25.919Z,7.37
2019-05-15T06:24:23.851Z,7.39
2019-05-15T06:25:23.846Z,7.45
2019-05-15T06:26:23.694Z,7.37
2019-05-15T06:27:23.658Z,7.47
2019-05-15T06:28:23.532Z,7.45
2019-05-15T06:29:23.451Z,7.44
2019-05-15T06:30:27.446Z,7.49
2019-05-15T06:31:23.290Z,7.59
2019-05-15T06:32:23.208Z,7.62
2019-05-15T06:33:23.183Z,7.57
2019-05-15T06:34:23.043Z,7.70
2019-05-15T06:35:22.967Z,7.57
2019-05-15T06:36:22.887Z,7.57
2019-05-15T06:37:22.901Z,7.63
2019-05-15T06:38:22.722Z,7.62
2019-05-15T06:39:22.717Z,7.59
2019-05-15T06:40:22.563Z,7.64
2019-05-15T06:41:22.480Z,7.63
2019-05-15T06:42:22.421Z,7.67
2019-05-15T06:43:22.335Z,7.68
2019-05-15T06:44:22.335Z,7.72
2019-05-15T06:45:22.159Z,7.70
2019-05-15T06:46:22.144Z,7.67
2019-05-15T06:47:22.000Z,7.67
2019-05-15T06:48:21.916Z,7.63
2019-05-15T06:49:21.859Z,7.73
2019-05-15T06:50:21.758Z,7.73
2019-05-15T06:51:21.776Z,7.70
2019-05-15T06:52:21.601Z,7.73
2019-05-15T06:53:21.575Z,7.75
2019-05-15T06:54:21.434Z,7.82
2019-05-15T06:55:21.388Z,7.86
2019-05-15T06:56:21.270Z,7.91
2019-05-15T06:57:21.297Z,7.99
2019-05-15T06:58:21.112Z,7.99
2019-05-15T06:59:21.029Z,8.12
2019-05-15T07:00:20.947Z,8.18
2019-05-15T07:01:20.917Z,8.19
2019-05-15T07:02:20.790Z,8.21
2019-05-15T07:03:25.781Z,8.18
2019-05-15T07:04:20.635Z,8.18
2019-05-15T07:05:20.643Z,8.24
2019-05-15T07:06:20.468Z,8.30
2019-05-15T07:07:20.447Z,8.27
2019-05-15T07:08:20.324Z,8.39
2019-05-15T07:09:20.253Z,8.42
2019-05-15T07:10:20.200Z,8.43
2019-05-15T07:11:20.170Z,8.40
2019-05-15T07:12:19.991Z,8.43
2019-05-15T07:13:19.985Z,8.42
2019-05-15T07:14:19.823Z,8.55
2019-05-15T07:15:19.747Z,8.40
2019-05-15T07:16:19.692Z,8.54
2019-05-15T07:17:19.586Z,8.58
2019-05-15T07:18:20.147Z,8.60
2019-05-15T07:19:19.424Z,8.68
2019-05-15T07:20:19.413Z,8.61
2019-05-15T07:21:20.602Z,8.73
2019-05-15T07:22:19.220Z,8.66
2019-05-15T07:23:19.284Z,8.75
2019-05-15T07:24:19.136Z,8.77
2019-05-15T07:25:19.052Z,8.80
2019-05-15T07:26:18.965Z,8.87
2019-05-15T07:27:18.784Z,8.93
2019-05-15T07:28:18.706Z,8.93
2019-05-15T07:29:18.980Z,9.03
2019-05-15T07:30:18.805Z,9.09
2019-05-15T07:31:18.566Z,9.16
2019-05-15T07:32:19.259Z,9.22
2019-05-15T07:33:28.120Z,9.13
2019-05-15T07:34:18.824Z,9.31
2019-05-15T07:35:19.133Z,9.40
2019-05-15T07:36:19.221Z,9.40
2019-05-15T07:37:18.997Z,9.38
2019-05-15T07:38:18.333Z,9.49
2019-05-15T07:39:18.063Z,9.50
2019-05-15T07:40:19.349Z,9.63
2019-05-15T07:41:18.461Z,9.67
2019-05-15T07:42:18.526Z,9.53
2019-05-15T07:43:18.140Z,9.72
2019-05-15T07:44:18.887Z,9.74
2019-05-15T07:45:28.126Z,9.80
2019-05-15T07:46:18.427Z,9.78
2019-05-15T07:47:19.097Z,9.90
2019-05-15T07:48:18.687Z,10.03
2019-05-15T07:49:18.256Z,10.10
2019-05-15T07:50:19.529Z,10.08
2019-05-15T07:51:17.979Z,10.16
2019-05-15T07:52:19.186Z,10.07
2019-05-15T07:53:19.254Z,10.10
2019-05-15T07:54:18.248Z,10.07
2019-05-15T07:55:18.466Z,10.18
2019-05-15T07:56:18.155Z,10.19
2019-05-15T07:57:19.244Z,10.10
2019-05-15T07:58:20.247Z,10.15
2019-05-15T07:59:18.530Z,10.16
2019-05-15T08:00:18.550Z,10.23
2019-05-15T08:01:18.378Z,10.21
2019-05-15T08:02:15.988Z,10.18
2019-05-15T08:03:18.355Z,10.23
2019-05-15T08:04:26.304Z,10.28
2019-05-15T08:05:18.087Z,10.41
2019-05-15T08:06:17.838Z,10.46
2019-05-15T08:07:15.595Z,10.55
2019-05-15T08:08:18.206Z,10.53
2019-05-15T08:09:17.857Z,10.65
2019-05-15T08:10:18.123Z,10.65
2019-05-15T08:11:20.632Z,10.69
2019-05-15T08:12:15.200Z,10.83
2019-05-15T08:13:15.273Z,10.85
2019-05-15T08:14:15.042Z,10.91
2019-05-15T08:15:15.185Z,11.02
2019-05-15T08:16:14.882Z,11.11
2019-05-15T08:17:18.323Z,11.03
2019-05-15T08:18:14.727Z,11.11
2019-05-15T08:19:14.799Z,11.24
2019-05-15T08:20:14.566Z,11.24
2019-05-15T08:21:14.712Z,11.29
2019-05-15T08:22:15.185Z,11.38
2019-05-15T08:23:14.524Z,11.32
2019-05-15T08:24:14.259Z,11.16
2019-05-15T08:25:28.257Z,11.13
2019-05-15T08:26:14.092Z,11.20
2019-05-15T08:27:14.247Z,11.28
2019-05-15T08:28:13.940Z,11.41
2019-05-15T08:29:13.950Z,11.35
2019-05-15T08:30:13.779Z,11.56
2019-05-15T08:31:13.732Z,11.64
2019-05-15T08:32:13.628Z,11.67
2019-05-15T08:33:13.688Z,11.78
2019-05-15T08:34:16.309Z,11.74
2019-05-15T08:35:13.474Z,11.84
2019-05-15T08:36:13.304Z,11.97
2019-05-15T08:37:13.287Z,11.93
2019-05-15T08:38:14.356Z,11.98
2019-05-15T08:39:13.105Z,12.03
2019-05-15T08:40:12.998Z,12.08
2019-05-15T08:41:15.524Z,12.08
2019-05-15T08:42:12.847Z,11.98
2019-05-15T08:43:12.760Z,12.00
2019-05-15T08:44:12.721Z,12.11
2019-05-15T08:45:12.608Z,12.11
2019-05-15T08:46:12.630Z,12.26
2019-05-15T08:47:12.457Z,12.26
2019-05-15T08:48:12.440Z,12.33
2019-05-15T08:49:12.286Z,12.46
2019-05-15T08:50:12.249Z,12.49
2019-05-15T08:51:12.133Z,12.53
2019-05-15T08:52:12.061Z,12.53
2019-05-15T08:53:11.980Z,12.60
2019-05-15T08:54:11.972Z,12.64
2019-05-15T08:55:11.816Z,12.56
2019-05-15T08:56:14.681Z,12.70
2019-05-15T08:57:11.670Z,12.71
2019-05-15T08:58:14.072Z,12.73
2019-05-15T08:59:11.510Z,12.85
2019-05-15T09:00:11.439Z,12.91
2019-05-15T09:01:11.403Z,12.86
2019-05-15T09:02:11.274Z,12.97
2019-05-15T09:03:11.314Z,13.03
2019-05-15T09:04:26.141Z,13.04
2019-05-15T09:05:11.041Z,13.21
2019-05-15T09:06:11.040Z,13.44
2019-05-15T09:07:10.912Z,13.59
2019-05-15T09:08:10.948Z,13.84
2019-05-15T09:09:10.746Z,13.95
2019-05-15T09:10:10.749Z,13.95
2019-05-15T09:11:10.579Z,13.96
2019-05-15T09:12:10.495Z,14.02
2019-05-15T09:13:10.422Z,14.10
2019-05-15T09:14:10.369Z,14.01
2019-05-15T09:15:10.265Z,14.11
2019-05-15T09:16:10.198Z,14.07
2019-05-15T09:17:10.117Z,13.99
2019-05-15T09:18:15.921Z,13.98
2019-05-15T09:19:09.956Z,14.07
2019-05-15T09:20:09.907Z,13.94
2019-05-15T09:21:09.800Z,13.98
2019-05-15T09:22:09.809Z,14.01
2019-05-15T09:23:09.649Z,13.84
2019-05-15T09:24:09.653Z,13.70
2019-05-15T09:25:09.492Z,13.52
2019-05-15T09:26:09.534Z,13.52
2019-05-15T09:27:10.249Z,13.53
2019-05-15T09:28:09.347Z,13.44
2019-05-15T09:29:09.511Z,13.48
2019-05-15T09:30:09.152Z,13.53
2019-05-15T09:31:09.030Z,13.56
2019-05-15T09:32:12.388Z,13.61
2019-05-15T09:33:08.916Z,13.63
2019-05-15T09:34:09.240Z,13.74
2019-05-15T09:35:08.720Z,13.66
2019-05-15T09:36:09.215Z,13.70
2019-05-15T09:37:08.689Z,13.83
2019-05-15T09:38:08.779Z,13.95
2019-05-15T09:39:08.780Z,14.02
2019-05-15T09:40:08.988Z,14.17
2019-05-15T09:41:09.166Z,14.29
2019-05-15T09:42:08.520Z,14.31
2019-05-15T09:43:10.897Z,14.38
2019-05-15T09:44:08.118Z,14.24
2019-05-15T09:45:08.952Z,14.42
2019-05-15T09:46:10.313Z,14.32
2019-05-15T09:47:09.144Z,14.36
2019-05-15T09:48:10.126Z,14.38
2019-05-15T09:49:08.821Z,14.35
2019-05-15T09:50:08.500Z,14.32
2019-05-15T09:51:09.192Z,14.31
2019-05-15T09:52:08.997Z,14.24
2019-05-15T09:53:09.296Z,14.27
2019-05-15T09:54:08.111Z,14.29
2019-05-15T09:55:08.546Z,14.14
2019-05-15T09:56:08.097Z,14.27
2019-05-15T09:57:10.661Z,14.36
2019-05-15T09:58:08.262Z,14.29
2019-05-15T09:59:08.909Z,14.44
2019-05-15T10:00:09.014Z,14.36
2019-05-15T10:01:08.462Z,14.21
2019-05-15T10:02:09.075Z,14.05
2019-05-15T10:03:09.366Z,14.10
2019-05-15T10:04:08.331Z,14.13
2019-05-15T10:05:10.986Z,14.19
2019-05-15T10:06:08.160Z,14.20
2019-05-15T10:07:08.203Z,14.14
2019-05-15T10:08:08.480Z,14.21
2019-05-15T10:09:08.873Z,14.16
2019-05-15T10:10:08.516Z,14.28
2019-05-15T10:11:08.871Z,14.24
2019-05-15T10:12:05.875Z,14.27
2019-05-15T10:13:05.863Z,14.29
2019-05-15T10:14:05.725Z,14.35
2019-05-15T10:15:10.477Z,14.24
2019-05-15T10:16:08.214Z,14.35
2019-05-15T10:17:05.592Z,14.38
2019-05-15T10:18:05.426Z,14.36
2019-05-15T10:19:05.393Z,14.39
2019-05-15T10:20:05.265Z,14.44
2019-05-15T10:21:05.187Z,14.47
2019-05-15T10:22:05.226Z,14.44
2019-05-15T10:23:05.032Z,14.56
2019-05-15T10:24:05.015Z,14.60
2019-05-15T10:25:04.888Z,14.64
2019-05-15T10:26:04.937Z,14.61
2019-05-15T10:27:04.728Z,14.69
2019-05-15T10:28:04.736Z,14.53
2019-05-15T10:29:04.574Z,14.44
2019-05-15T10:30:04.651Z,14.38
2019-05-15T10:31:04.421Z,14.42
2019-05-15T10:32:04.458Z,14.41
2019-05-15T10:33:04.293Z,14.41
2019-05-15T10:34:04.266Z,14.44
2019-05-15T10:35:04.122Z,14.60
2019-05-15T10:36:04.180Z,14.65
2019-05-15T10:37:03.965Z,14.85
2019-05-15T10:38:03.986Z,14.88
2019-05-15T10:39:03.839Z,15.05
2019-05-15T10:40:03.810Z,15.13
2019-05-15T10:41:09.399Z,15.26
2019-05-15T10:42:03.580Z,15.41
2019-05-15T10:43:03.510Z,15.34
2019-05-15T10:44:03.444Z,15.48
2019-05-15T10:45:03.419Z,15.41
2019-05-15T10:46:03.279Z,15.51
2019-05-15T10:47:03.338Z,15.51
2019-05-15T10:48:03.126Z,15.55
2019-05-15T10:49:03.142Z,15.52
2019-05-15T10:50:02.971Z,15.46
2019-05-15T10:51:07.259Z,15.34
2019-05-15T10:52:02.822Z,15.20
2019-05-15T10:53:02.860Z,15.03
2019-05-15T10:54:02.676Z,14.90
2019-05-15T10:55:02.673Z,14.80
2019-05-15T10:56:02.875Z,14.85
2019-05-15T10:57:05.274Z,14.85
2019-05-15T10:58:02.364Z,14.85
2019-05-15T10:59:02.399Z,14.90
2019-05-15T11:00:02.221Z,15.12
2019-05-15T11:01:03.372Z,15.24
2019-05-15T11:02:02.059Z,15.35
2019-05-15T11:03:02.031Z,15.41
2019-05-15T11:04:01.906Z,15.28
2019-05-15T11:05:01.935Z,15.51
2019-05-15T11:06:01.757Z,15.42
2019-05-15T11:07:01.838Z,15.55
2019-05-15T11:08:01.603Z,15.59
2019-05-15T11:09:01.529Z,15.57
2019-05-15T11:10:01.552Z,15.48
2019-05-15T11:11:01.373Z,15.45
2019-05-15T11:12:01.465Z,15.43
2019-05-15T11:13:01.221Z,15.48
2019-05-15T11:14:01.271Z,15.53
2019-05-15T11:15:01.081Z,15.45
2019-05-15T11:16:01.081Z,15.39
2019-05-15T11:17:00.920Z,15.42
2019-05-15T11:18:00.997Z,15.51
2019-05-15T11:19:00.770Z,15.51
2019-05-15T11:20:00.798Z,15.60
2019-05-15T11:21:00.617Z,15.60
2019-05-15T11:22:00.718Z,15.49
2019-05-15T11:23:00.470Z,15.53
2019-05-15T11:24:00.522Z,15.52
2019-05-15T11:25:00.319Z,15.51
2019-05-15T11:26:00.333Z,15.53
2019-05-15T11:27:00.217Z,15.63
2019-05-15T11:28:00.254Z,15.59
2019-05-15T11:29:00.014Z,15.63
2019-05-15T11:30:00.052Z,15.75
2019-05-15T11:30:59.865Z,15.79
2019-05-15T11:31:59.977Z,15.71
2019-05-15T11:32:59.718Z,15.76
2019-05-15T11:33:59.768Z,15.78
2019-05-15T11:34:59.566Z,15.85
2019-05-15T11:36:05.581Z,15.81
2019-05-15T11:36:59.529Z,15.79
2019-05-15T11:37:59.491Z,15.75
2019-05-15T11:38:59.261Z,15.81
2019-05-15T11:39:59.298Z,15.85
2019-05-15T11:40:59.104Z,15.83
2019-05-15T11:41:59.034Z,15.76
2019-05-15T11:42:58.962Z,15.64
2019-05-15T11:43:58.920Z,15.52
2019-05-15T11:44:58.830Z,15.60
2019-05-15T11:45:59.018Z,15.61
2019-05-15T11:46:58.851Z,15.60
2019-05-15T11:48:01.025Z,15.63
2019-05-15T11:48:58.858Z,15.55
2019-05-15T11:49:58.670Z,15.51
2019-05-15T11:50:58.352Z,15.59
2019-05-15T11:52:00.640Z,15.55
2019-05-15T11:52:58.635Z,15.63
2019-05-15T11:53:58.764Z,15.71
2019-05-15T11:54:58.947Z,15.73
2019-05-15T11:55:59.854Z,15.73
2019-05-15T11:56:59.625Z,15.45
2019-05-15T11:57:59.373Z,15.55
2019-05-15T11:58:57.751Z,15.51
2019-05-15T11:59:59.653Z,15.60
2019-05-15T12:00:58.025Z,15.63
2019-05-15T12:01:58.015Z,15.71
2019-05-15T12:02:58.409Z,15.68
2019-05-15T12:03:58.539Z,15.81
2019-05-15T12:04:58.381Z,15.81
2019-05-15T12:05:59.649Z,15.78
2019-05-15T12:07:02.117Z,15.52
2019-05-15T12:07:57.925Z,15.49
2019-05-15T12:08:59.166Z,15.49
2019-05-15T12:09:58.100Z,15.45
2019-05-15T12:10:59.114Z,15.45
2019-05-15T12:11:56.970Z,15.33
2019-05-15T12:12:56.696Z,15.30
2019-05-15T12:13:56.774Z,15.26
2019-05-15T12:14:56.544Z,15.39
2019-05-15T12:15:58.757Z,15.51
2019-05-15T12:17:06.954Z,15.43
2019-05-15T12:17:59.007Z,15.41
2019-05-15T12:18:59.065Z,15.43
2019-05-15T12:20:04.692Z,15.41
2019-05-15T12:20:58.789Z,15.52
2019-05-15T12:21:59.582Z,15.63
2019-05-15T12:22:55.944Z,15.73
2019-05-15T12:23:56.019Z,15.89
2019-05-15T12:24:55.792Z,16.04
2019-05-15T12:25:55.716Z,16.20
2019-05-15T12:26:55.638Z,16.15
2019-05-15T12:27:55.749Z,16.35
2019-05-15T12:28:58.456Z,16.18
2019-05-15T12:29:55.414Z,16.26
2019-05-15T12:30:59.340Z,16.30
2019-05-15T12:31:55.264Z,16.27
2019-05-15T12:32:55.365Z,16.35
2019-05-15T12:33:55.115Z,16.35
2019-05-15T12:34:55.174Z,16.38
2019-05-15T12:35:54.965Z,16.37
2019-05-15T12:37:54.815Z,15.70
2019-05-15T12:38:54.897Z,15.64
2019-05-15T12:39:24.793Z,16.01
2019-05-15T12:59:53.164Z,16.55
2019-05-15T13:00:53.091Z,16.50
2019-05-15T13:01:53.213Z,16.59
2019-05-15T13:02:52.940Z,16.50
2019-05-15T13:03:53.021Z,16.47
2019-05-15T13:04:52.794Z,16.47
2019-05-15T13:05:52.833Z,16.38
2019-05-15T13:07:11.587Z,16.41
2019-05-15T13:07:52.569Z,16.37
2019-05-15T13:08:52.494Z,16.29
2019-05-15T13:09:52.550Z,16.23
2019-05-15T13:10:52.342Z,16.22
2019-05-15T13:11:52.461Z,16.08
2019-05-15T13:13:00.948Z,16.04
2019-05-15T13:13:52.130Z,16.04
2019-05-15T13:14:52.188Z,16.04
2019-05-15T13:15:51.967Z,16.08
2019-05-15T13:16:51.895Z,16.01
2019-05-15T13:17:53.365Z,15.83
2019-05-15T13:18:51.748Z,15.59
2019-05-15T13:19:51.814Z,15.60
2019-05-15T13:20:51.612Z,15.68
2019-05-15T13:21:51.699Z,15.85
2019-05-15T13:23:51.460Z,15.68
2019-05-15T13:24:51.295Z,15.82
2019-05-15T13:25:51.331Z,15.63
2019-05-15T13:26:51.144Z,15.63
2019-05-15T13:27:51.241Z,15.42